Kelly, NC

3:48 AM EST on January 18, 2017 (GMT -0500)
Elizabethtown

Weather History for KEYF - January, 2014

Change the Weather History Date:

Sunday, January 19, 2014

  Actual Average (KILM) Record (KILM)
Temperature  
Mean Temperature 42 °F -  
Max Temperature 55 °F 53 °F 75 °F (1950)
Min Temperature 30 °F 35 °F 12 °F (1994)
Degree Days  
Heating Degree Days 22    
Moisture  
Dew Point 26 °F    
Average Humidity 55    
Maximum Humidity 78    
Minimum Humidity 34    
Precipitation  
Precipitation 0.00 in - - ()
Sea Level Pressure  
Sea Level Pressure 30.00 in    
Wind  
Wind Speed 5 mph (SW)    
Max Wind Speed 12 mph    
Max Gust Speed 17 mph    
Visibility 10 miles    
Events Rain    
Averages and records for this station are not official NWS values.
T = Trace of Precipitation, MM = Missing Value Source: NWS Daily Summary

Daily Weather History Graph

Daily Weather History Graph

Search for Another Location

Airport or City:

Trip Planner

Search our weather history database for the weather conditions in past years. The results will help you decide how hot, cold, wet, or windy it might be!

Date:

Astronomy

Jan. 19, 2014 Rise Set
Actual Time 7:18 AM EST 5:29 PM EST
Civil Twilight 6:51 AM EST 5:57 PM EST
Nautical Twilight 6:20 AM EST 6:27 PM EST
Astronomical Twilight 5:50 AM EST 6:57 PM EST
Moon 8:55 PM EST (1/19) 8:57 AM EST (1/19)
Length of Visible Light 11h 05m
Length of Day
10h 11m
Waning Gibbous, 89% of the Moon is Illuminated
Jan 19
Waning Gibbous
Jan 24
Last Quarter
Jan 30
New
Feb 6
First Quarter
Feb 14
Full

Hourly Weather History & Observations

Time (EST) Temp. Windchill Dew Point Humidity Pressure Visibility Wind Dir Wind Speed Gust Speed Precip Events Conditions
12:15 AM 30.6 °F 27.1 °F 20.3 °F 66% 30.06 in 10.0 mi SSW 3.5 mph - N/A   Clear
12:35 AM 30.7 °F 27.3 °F 20.3 °F 65% 30.07 in 10.0 mi SW 3.5 mph - N/A   Clear
12:55 AM 32.0 °F 28.7 °F 20.3 °F 62% 30.07 in 10.0 mi SW 3.5 mph - N/A   Clear
1:15 AM 32.0 °F 28.7 °F 21.0 °F 64% 30.06 in 10.0 mi SW 3.5 mph - N/A   Clear
1:35 AM 32.4 °F 27.9 °F 20.8 °F 63% 30.05 in 10.0 mi South 4.6 mph - N/A   Scattered Clouds
1:55 AM 32.5 °F 29.3 °F 21.2 °F 63% 30.05 in 10.0 mi SSW 3.5 mph - N/A   Mostly Cloudy
2:15 AM 32.9 °F - 21.0 °F 62% 30.05 in 10.0 mi Calm Calm - N/A   Clear
2:35 AM 32.2 °F 28.9 °F 21.0 °F 63% 30.05 in 10.0 mi SW 3.5 mph - N/A   Clear
2:55 AM 33.1 °F 28.7 °F 21.0 °F 61% 30.05 in 10.0 mi SSW 4.6 mph - N/A   Clear
3:15 AM 34.3 °F 29.2 °F 20.3 °F 57% 30.04 in 10.0 mi SSW 5.8 mph - N/A   Clear
3:35 AM 34.3 °F 29.2 °F 20.7 °F 57% 30.04 in 10.0 mi SSW 5.8 mph - N/A   Clear
3:55 AM 34.7 °F 30.6 °F 20.3 °F 56% 30.03 in 10.0 mi SSW 4.6 mph - N/A   Clear
4:15 AM 34.7 °F 29.6 °F 20.8 °F 57% 30.02 in 10.0 mi South 5.8 mph - N/A   Clear
4:35 AM 34.7 °F 29.6 °F 21.2 °F 58% 30.02 in 10.0 mi SSW 5.8 mph - N/A   Scattered Clouds
4:55 AM 35.6 °F 29.2 °F 20.8 °F 55% 30.01 in 10.0 mi SSW 8.1 mph - N/A   Overcast
5:15 AM 36.0 °F 29.6 °F 21.2 °F 55% 30.01 in 10.0 mi SSW 8.1 mph - N/A   Overcast
5:35 AM 36.3 °F 30.8 °F 21.2 °F 54% 30.01 in 10.0 mi SSW 6.9 mph - N/A   Mostly Cloudy
5:55 AM 36.5 °F 29.7 °F 21.2 °F 54% 30.01 in 10.0 mi SSW 9.2 mph - N/A   Mostly Cloudy
6:15 AM 36.9 °F 30.7 °F 21.0 °F 53% 30.00 in 10.0 mi South 8.1 mph - N/A   Overcast
6:35 AM 38.3 °F 32.5 °F 21.2 °F 50% 30.00 in 10.0 mi SSW 8.1 mph - N/A   Overcast
6:55 AM 38.3 °F 32.5 °F 20.8 °F 50% 30.00 in 10.0 mi SSW 8.1 mph - N/A   Overcast
7:15 AM 38.3 °F 34.8 °F 21.0 °F 50% 30.00 in 10.0 mi SSW 4.6 mph - N/A   Overcast
7:35 AM 38.3 °F 33.2 °F 21.4 °F 51% 30.01 in 10.0 mi SSW 6.9 mph - N/A   Overcast
7:55 AM 38.3 °F 33.2 °F 21.2 °F 50% 30.01 in 10.0 mi SSW 6.9 mph - N/A   Overcast
8:15 AM 38.3 °F 33.2 °F 21.2 °F 50% 30.01 in 10.0 mi SSW 6.9 mph - N/A   Overcast
8:35 AM 38.5 °F 33.4 °F 22.1 °F 52% 30.02 in 10.0 mi SSW 6.9 mph - N/A   Overcast
8:55 AM 38.8 °F 35.4 °F 23.9 °F 55% 30.02 in 10.0 mi SSW 4.6 mph - N/A   Light Drizzle
9:15 AM 39.2 °F 35.9 °F 22.8 °F 52% 30.02 in 10.0 mi SSW 4.6 mph - N/A   Overcast
9:35 AM 40.1 °F 34.7 °F 23.2 °F 51% 30.03 in 10.0 mi SSW 8.1 mph - N/A   Overcast
9:55 AM 40.1 °F 34.7 °F 24.8 °F 54% 30.04 in 10.0 mi SSW 8.1 mph - N/A Rain Light Rain
10:15 AM 40.3 °F 33.9 °F 25.9 °F 56% 30.01 in 10.0 mi South 10.4 mph - N/A   Light Drizzle
10:35 AM 39.9 °F 36.7 °F 28.4 °F 63% 30.03 in 10.0 mi SW 4.6 mph - N/A Rain Light Rain
10:55 AM 42.1 °F 37.1 °F 28.6 °F 59% 30.03 in 10.0 mi SW 8.1 mph - N/A   Scattered Clouds
11:15 AM 43.7 °F 37.7 °F 28.2 °F 54% 30.02 in 10.0 mi SW 11.5 mph 16.1 mph N/A   Clear
11:35 AM 45.1 °F 40.8 °F 28.0 °F 51% 30.01 in 10.0 mi WSW 8.1 mph - N/A   Clear
11:55 AM 47.3 °F - 28.4 °F 48% 30.00 in 10.0 mi SW 9.2 mph - N/A   Scattered Clouds
12:15 PM 47.8 °F - 27.3 °F 45% 29.99 in 10.0 mi West 11.5 mph 17.3 mph N/A   Scattered Clouds
12:35 PM 48.7 °F - 27.9 °F 44% 29.98 in 10.0 mi West 9.2 mph - N/A   Scattered Clouds
12:55 PM 49.6 °F - 27.3 °F 42% 29.96 in 10.0 mi West 10.4 mph - N/A   Scattered Clouds
1:15 PM 50.9 °F - 27.7 °F 41% 29.95 in 10.0 mi WSW 8.1 mph - N/A   Clear
1:35 PM 52.2 °F - 27.3 °F 38% 29.95 in 10.0 mi West 9.2 mph - N/A   Clear
1:55 PM 52.7 °F - 27.5 °F 38% 29.95 in 10.0 mi WSW 6.9 mph - N/A   Clear
2:15 PM 53.4 °F - 27.5 °F 37% 29.94 in 10.0 mi West 6.9 mph - N/A   Clear
2:35 PM 54.1 °F - 28.0 °F 37% 29.94 in 10.0 mi WSW 9.2 mph - N/A   Clear
2:55 PM 54.0 °F - 27.7 °F 36% 29.94 in 10.0 mi WSW 9.2 mph - N/A   Clear
3:15 PM 55.0 °F - 28.2 °F 36% 29.94 in 10.0 mi West 9.2 mph - N/A   Clear
3:35 PM 54.9 °F - 27.0 °F 34% 29.94 in 10.0 mi West 10.4 mph - N/A   Clear
3:55 PM 54.7 °F - 27.0 °F 34% 29.95 in 10.0 mi West 10.4 mph 17.3 mph N/A   Clear
4:15 PM 54.9 °F - 27.7 °F 35% 29.95 in 10.0 mi West 6.9 mph - N/A   Clear
4:35 PM 54.3 °F - 28.0 °F 36% 29.95 in 10.0 mi West 11.5 mph 16.1 mph N/A   Clear
4:55 PM 54.0 °F - 28.0 °F 37% 29.95 in 10.0 mi West 8.1 mph - N/A   Clear
5:15 PM 52.9 °F - 29.1 °F 40% 29.96 in 10.0 mi WSW 4.6 mph - N/A   Clear
5:35 PM 52.0 °F - 30.0 °F 43% 29.96 in 10.0 mi Calm Calm - N/A   Clear
5:55 PM 48.7 °F - 31.5 °F 51% 29.96 in 10.0 mi Calm Calm - N/A   Clear
6:15 PM 44.6 °F - 32.4 °F 62% 29.97 in 10.0 mi Calm Calm - N/A   Clear
6:35 PM 43.5 °F 41.9 °F 32.0 °F 64% 29.97 in 10.0 mi SW 3.5 mph - N/A   Clear
6:55 PM 41.9 °F - 32.0 °F 68% 29.97 in 10.0 mi Calm Calm - N/A   Clear
7:15 PM 41.5 °F 39.6 °F 31.8 °F 68% 29.98 in 10.0 mi SW 3.5 mph - N/A   Clear
7:35 PM 40.6 °F - 31.6 °F 70% 29.99 in 10.0 mi Calm Calm - N/A   Clear
8:15 PM 39.6 °F 37.4 °F 31.1 °F 72% 29.99 in 10.0 mi SW 3.5 mph - N/A   Clear
8:35 PM 39.0 °F 36.8 °F 30.7 °F 72% 29.99 in 10.0 mi SW 3.5 mph - N/A   Clear
8:55 PM 38.7 °F 36.3 °F 30.6 °F 73% 29.99 in 10.0 mi South 3.5 mph - N/A   Clear
9:15 PM 37.9 °F 35.5 °F 31.6 °F 78% 29.99 in 10.0 mi SW 3.5 mph - N/A   Clear
9:35 PM 38.3 °F 35.9 °F 31.1 °F 75% 29.99 in 10.0 mi SW 3.5 mph - N/A   Clear
9:55 PM 37.4 °F 34.9 °F 30.4 °F 76% 29.99 in 10.0 mi SW 3.5 mph - N/A   Clear
10:15 PM 40.6 °F 37.5 °F 30.6 °F 67% 29.99 in 10.0 mi SW 4.6 mph - N/A   Clear
10:35 PM 40.3 °F 38.2 °F 30.0 °F 67% 29.99 in 10.0 mi SW 3.5 mph - N/A   Clear
10:55 PM 40.1 °F 38.0 °F 30.2 °F 68% 29.99 in 10.0 mi SSW 3.5 mph - N/A   Clear
11:15 PM 37.0 °F 34.5 °F 29.8 °F 75% 29.99 in 10.0 mi SW 3.5 mph - N/A   Clear
11:35 PM 39.9 °F 35.8 °F 30.0 °F 68% 29.99 in 10.0 mi SW 5.8 mph - N/A   Clear
11:55 PM 40.6 °F 36.7 °F 29.7 °F 65% 29.98 in 10.0 mi SW 5.8 mph - N/A   Clear